Time;durP1;ratioP1;P1;durP2;ratioP2;P2;SDS_P1;SDS_P2;PMS_P1;PMS_P2;Temp;Humidity;BMP_temperature;BMP_pressure;BME280_temperature;BME280_humidity;BME280_pressure;Samples;Min_cycle;Max_cycle;Signal;HPM_P1;HPM_P2
2022/03/02 00:01:05;;;;;;;13.70;12.03;;;8.00;42.10;;;-142.21;50.69;112049.66;5085839;28;20951;-76
2022/03/02 00:03:33;;;;;;;15.63;13.07;;;8.00;42.40;;;-142.21;50.30;112049.66;5093240;28;20435;-77
2022/03/02 00:06:02;;;;;;;17.30;12.53;;;8.00;42.60;;;-142.21;50.97;112049.66;5077710;28;20987;-76
2022/03/02 00:08:29;;;;;;;16.90;13.83;;;8.00;42.70;;;-142.21;52.49;112049.66;5061235;28;20811;-82
2022/03/02 00:11:03;;;;;;;15.77;13.17;;;8.00;43.20;;;-142.21;52.56;112049.66;5079665;28;20554;-83
2022/03/02 00:13:30;;;;;;;15.57;12.97;;;8.00;43.40;;;-142.21;52.15;112049.66;5075299;28;20455;-83
2022/03/02 00:15:58;;;;;;;14.53;12.87;;;7.90;43.50;;;-142.21;54.40;112049.66;5076132;28;20539;-82
2022/03/02 00:18:26;;;;;;;16.40;12.40;;;7.90;43.80;;;-142.21;53.46;112049.66;5075814;28;20479;-81
2022/03/02 00:20:54;;;;;;;17.50;12.70;;;7.90;43.80;;;-142.21;52.90;112049.66;5075586;28;20982;-82
2022/03/02 00:23:23;;;;;;;15.82;12.40;;;7.80;43.50;;;-142.21;52.43;112049.66;5075507;28;20479;-81
2022/03/02 00:25:50;;;;;;;15.50;12.52;;;7.90;43.30;;;-142.21;52.79;112049.66;5074903;28;20354;-81
2022/03/02 00:28:17;;;;;;;14.90;12.20;;;7.80;43.40;;;-142.21;53.71;112049.66;5075094;28;20296;-81
2022/03/02 00:30:44;;;;;;;14.37;12.27;;;7.70;43.60;;;-142.21;53.39;112049.66;5074167;28;20448;-78
2022/03/02 00:33:12;;;;;;;14.23;12.73;;;7.70;43.60;;;-142.21;53.54;112049.66;5073873;28;20542;-80
2022/03/02 00:35:39;;;;;;;14.23;11.90;;;7.70;43.70;;;-142.21;54.94;112049.66;5082331;28;20981;-77
2022/03/02 00:38:13;;;;;;;14.70;11.80;;;7.70;44.00;;;-142.21;54.33;112049.66;5073892;28;21012;-76
2022/03/02 00:40:42;;;;;;;15.40;12.43;;;7.60;44.00;;;-142.21;55.31;112049.66;5073114;28;20432;-77
2022/03/02 00:43:11;;;;;;;12.87;10.90;;;7.60;44.20;;;-142.21;55.65;112049.66;5072600;28;20475;-77
2022/03/02 00:45:39;;;;;;;14.53;12.17;;;7.60;44.20;;;-142.21;56.46;112049.66;5074166;28;20481;-75
2022/03/02 00:48:08;;;;;;;12.57;10.67;;;7.60;44.00;;;-142.21;56.91;112049.66;5072999;28;20482;-77
2022/03/02 00:50:37;;;;;;;12.63;11.03;;;7.60;44.20;;;-142.21;56.64;112049.66;5058698;28;20448;-78
2022/03/02 00:53:07;;;;;;;14.97;11.73;;;7.70;44.10;;;-142.21;56.82;112049.66;5060167;28;20442;-77
2022/03/02 00:55:37;;;;;;;14.60;12.30;;;7.70;44.30;;;-142.21;56.82;112049.66;5056595;28;20464;-76
2022/03/02 00:58:07;;;;;;;14.53;12.13;;;7.50;43.90;;;-142.21;57.12;112049.66;5071794;28;20452;-77
2022/03/02 01:00:37;;;;;;;13.50;10.87;;;7.60;44.00;;;-142.21;57.88;112049.66;5076123;28;20485;-76
2022/03/02 01:03:04;;;;;;;14.30;11.93;;;7.50;44.10;;;-142.21;58.71;112049.66;5056607;28;20449;-77
2022/03/02 01:05:32;;;;;;;17.43;13.23;;;7.50;44.00;;;-142.21;61.50;112049.66;5074342;28;20542;-77
2022/03/02 01:07:59;;;;;;;15.75;11.90;;;7.30;45.20;;;-142.21;62.48;112049.66;5062185;28;20482;-77
2022/03/02 01:10:27;;;;;;;14.45;12.18;;;7.10;45.80;;;-142.21;61.27;112049.66;5089728;28;20277;-77
2022/03/02 01:12:54;;;;;;;13.55;11.60;;;7.00;45.50;;;-142.21;61.46;112049.66;5064566;28;20321;-76
2022/03/02 01:15:23;;;;;;;14.88;11.70;;;6.90;45.20;;;-142.21;62.83;112049.66;5071672;28;20228;-76
2022/03/02 01:17:50;;;;;;;14.98;12.23;;;7.00;45.70;;;-142.21;63.46;112049.66;5090765;28;20265;-76
2022/03/02 01:20:17;;;;;;;14.67;12.10;;;6.90;45.90;;;-142.21;64.09;112049.66;5073590;28;20257;-76
2022/03/02 01:22:45;;;;;;;14.20;11.98;;;6.90;45.60;;;-142.21;65.74;112049.66;5087415;28;20450;-75
2022/03/02 01:25:13;;;;;;;16.23;11.07;;;6.70;45.70;;;-142.21;65.54;112049.66;5078228;28;20670;-75
2022/03/02 01:27:40;;;;;;;15.80;12.18;;;6.80;45.60;;;-142.21;65.05;112049.66;5057545;28;20662;-75
2022/03/02 01:30:10;;;;;;;14.75;11.98;;;6.80;45.40;;;-142.21;65.28;112049.66;5077729;28;20281;-76
2022/03/02 01:32:38;;;;;;;17.67;12.40;;;6.80;45.70;;;-142.21;65.71;112049.66;5074456;28;20193;-75
2022/03/02 01:35:08;;;;;;;15.15;12.40;;;6.70;45.90;;;-142.21;62.80;112049.66;5071525;28;20253;-75
2022/03/02 01:37:35;;;;;;;14.80;11.88;;;6.70;45.70;;;-142.21;59.58;112049.66;5071638;28;20205;-76
2022/03/02 01:40:03;;;;;;;18.52;11.88;;;6.50;45.10;;;-142.21;60.67;112049.66;5076557;28;20200;-75
2022/03/02 01:42:30;;;;;;;13.88;12.27;;;6.40;45.30;;;-142.21;60.25;112049.66;5073637;28;20209;-76
2022/03/02 01:44:57;;;;;;;13.90;12.38;;;6.40;45.20;;;-142.21;61.19;112049.66;5073222;28;20246;-75
2022/03/02 01:47:29;;;;;;;15.40;13.40;;;6.40;45.30;;;-142.21;61.57;112049.66;5078104;28;20206;-75
2022/03/02 01:49:58;;;;;;;15.35;12.32;;;6.40;45.60;;;-142.21;62.55;112049.66;5081601;28;20204;-76
2022/03/02 01:52:25;;;;;;;15.20;12.57;;;6.40;45.30;;;-142.21;62.11;112049.66;5076862;28;20249;-75
2022/03/02 01:54:52;;;;;;;16.02;12.35;;;6.40;45.40;;;-142.21;61.39;112049.66;5077538;28;20268;-76
2022/03/02 01:57:20;;;;;;;14.27;11.35;;;6.40;45.60;;;-142.21;61.38;112049.66;5078286;28;20208;-75
2022/03/02 01:59:48;;;;;;;14.90;10.90;;;6.30;45.90;;;-142.21;63.29;112049.66;5072101;28;20217;-75
2022/03/02 02:02:15;;;;;;;12.95;10.88;;;6.40;45.90;;;-142.21;63.84;112049.66;5081262;28;20201;-75
2022/03/02 02:04:43;;;;;;;13.48;11.32;;;6.40;46.60;;;-142.21;64.81;112049.66;5084996;28;20225;-78
2022/03/02 02:07:11;;;;;;;12.38;10.82;;;6.30;46.50;;;-142.21;65.09;112049.66;5074605;28;20290;-75
2022/03/02 02:09:39;;;;;;;13.32;11.07;;;6.30;46.40;;;-142.21;65.69;112049.66;5074886;28;20232;-76
2022/03/02 02:12:07;;;;;;;14.32;11.35;;;6.30;46.30;;;-142.21;65.01;112049.66;5081015;28;20193;-76
2022/03/02 02:14:34;;;;;;;14.45;11.38;;;6.30;46.50;;;-142.21;65.79;112049.66;5080370;28;20261;-74
2022/03/02 02:17:01;;;;;;;15.52;11.50;;;6.30;46.40;;;-142.21;65.32;112049.66;5074359;28;20203;-75
2022/03/02 02:19:28;;;;;;;13.35;11.63;;;6.10;46.20;;;-142.21;69.35;112049.66;5079537;28;20269;-76
2022/03/02 02:21:57;;;;;;;12.95;11.43;;;6.20;47.00;;;-142.21;71.27;112049.66;5074081;28;20737;-76
2022/03/02 02:24:26;;;;;;;14.23;11.38;;;6.10;47.20;;;-142.21;69.26;112049.66;5082367;28;20228;-75
2022/03/02 02:26:53;;;;;;;13.27;11.50;;;6.10;47.20;;;-142.21;69.22;112049.66;5074493;28;20703;-74
2022/03/02 02:29:24;;;;;;;12.23;10.93;;;6.10;46.80;;;-142.21;67.52;112049.66;5074118;28;20687;-75
2022/03/02 02:31:52;;;;;;;12.07;10.25;;;6.00;46.70;;;-142.21;68.17;112049.66;5074814;28;20247;-75
2022/03/02 02:34:19;;;;;;;13.27;10.65;;;6.10;46.50;;;-142.21;67.90;112049.66;5078053;28;20284;-76
2022/03/02 02:36:47;;;;;;;14.07;11.40;;;6.10;46.80;;;-142.21;67.38;112049.66;5074865;28;20638;-75
2022/03/02 02:39:16;;;;;;;13.88;10.93;;;6.10;47.00;;;-142.21;67.59;112049.66;5080974;28;20315;-75
2022/03/02 02:41:44;;;;;;;13.63;11.10;;;6.00;47.10;;;-142.21;68.08;112049.66;5093019;28;20234;-75
2022/03/02 02:44:11;;;;;;;12.65;11.13;;;5.90;47.20;;;-142.21;69.66;112049.66;5076937;28;20630;-76
2022/03/02 02:46:43;;;;;;;14.43;11.52;;;5.80;47.60;;;-142.21;70.45;112049.66;5074121;28;20275;-76
2022/03/02 02:49:11;;;;;;;15.32;11.48;;;5.80;48.10;;;-142.21;71.13;112049.66;5069723;28;20254;-76
2022/03/02 02:51:39;;;;;;;15.45;11.43;;;5.70;48.00;;;-142.21;70.58;112049.66;5077652;28;20251;-76
2022/03/02 02:54:07;;;;;;;13.43;11.65;;;5.60;48.30;;;-142.21;71.41;112049.66;5085204;28;20248;-75
2022/03/02 02:56:36;;;;;;;16.20;12.23;;;5.60;48.10;;;-142.21;72.63;112049.66;5078988;28;20201;-75
2022/03/02 02:59:04;;;;;;;14.90;12.20;;;5.50;48.70;;;-142.21;72.86;112049.66;5087066;28;20281;-76
2022/03/02 03:01:31;;;;;;;18.60;12.77;;;5.50;48.20;;;-142.21;73.68;112049.66;5061276;28;20218;-76
2022/03/02 03:03:58;;;;;;;16.15;12.18;;;5.40;48.40;;;-142.21;74.67;112049.66;5061213;28;20200;-76
2022/03/02 03:06:26;;;;;;;15.50;12.65;;;5.50;48.70;;;-142.21;74.95;112049.66;5090673;28;20231;-74
2022/03/02 03:08:53;;;;;;;15.30;12.82;;;5.50;48.50;;;-142.21;74.30;112049.66;5076094;28;20563;-75
2022/03/02 03:11:20;;;;;;;16.15;12.32;;;5.40;48.60;;;-142.21;73.19;112049.66;5074380;28;20240;-76
2022/03/02 03:13:49;;;;;;;17.67;12.80;;;5.40;48.20;;;-142.21;73.29;112049.66;5073396;28;20200;-75
2022/03/02 03:16:16;;;;;;;14.25;11.38;;;5.50;48.20;;;-142.21;71.76;112049.66;5073107;28;20288;-75
2022/03/02 03:18:45;;;;;;;15.25;12.48;;;5.40;48.00;;;-142.21;73.83;112049.66;5079771;28;20287;-75
2022/03/02 03:21:12;;;;;;;15.70;11.80;;;5.30;48.70;;;-142.21;72.89;112049.66;5072856;28;20239;-74
2022/03/02 03:23:40;;;;;;;15.27;11.60;;;5.20;48.40;;;-142.21;71.74;112049.66;5089517;28;20232;-76
2022/03/02 03:26:07;;;;;;;15.50;11.52;;;5.20;48.70;;;-142.21;72.22;112049.66;5052677;28;20678;-74
2022/03/02 03:28:35;;;;;;;15.85;11.90;;;5.20;48.10;;;-142.21;72.58;112049.66;5058149;28;20224;-74
2022/03/02 03:31:03;;;;;;;16.13;12.48;;;5.30;48.20;;;-142.21;75.27;112049.66;5079909;28;20209;-74
2022/03/02 03:33:31;;;;;;;15.60;12.25;;;5.20;49.00;;;-142.21;75.65;112049.66;5074935;28;20288;-76
2022/03/02 03:35:58;;;;;;;12.48;11.13;;;5.10;48.80;;;-142.21;74.33;112049.66;5071046;28;20673;-76
2022/03/02 03:38:25;;;;;;;14.45;11.45;;;5.10;48.90;;;-142.21;73.41;112049.66;5076642;28;20305;-75
2022/03/02 03:40:52;;;;;;;14.43;11.75;;;5.20;48.40;;;-142.21;73.12;112049.66;5062379;28;20264;-73
2022/03/02 03:43:20;;;;;;;14.52;11.48;;;5.10;48.30;;;-142.21;74.07;112049.66;5079164;28;20285;-74
2022/03/02 03:45:49;;;;;;;14.38;11.77;;;5.10;48.40;;;-142.21;74.14;112049.66;5079443;28;20320;-75
2022/03/02 03:48:17;;;;;;;13.15;11.05;;;5.10;48.30;;;-142.21;73.17;112049.66;5078204;28;20193;-77
2022/03/02 03:50:45;;;;;;;12.68;10.82;;;5.00;48.90;;;-142.21;74.75;112049.66;5072396;28;20229;-75
2022/03/02 03:53:13;;;;;;;13.25;11.20;;;4.90;49.20;;;-142.21;74.97;112049.66;5070493;28;20228;-75
2022/03/02 03:55:41;;;;;;;13.52;11.40;;;4.80;49.20;;;-142.21;73.15;112049.66;5054970;28;20294;-76
2022/03/02 03:58:09;;;;;;;14.10;11.77;;;4.80;49.40;;;-142.21;76.22;112049.66;5082989;28;20288;-76
2022/03/02 04:00:36;;;;;;;15.02;11.70;;;4.80;49.70;;;-142.21;77.53;112049.66;5062578;28;20707;-74
2022/03/02 04:03:04;;;;;;;13.88;11.27;;;4.70;49.90;;;-142.21;76.64;112049.66;5070035;28;20197;-75
2022/03/02 04:05:32;;;;;;;13.60;10.98;;;4.70;50.00;;;-142.21;76.18;112049.66;5085728;28;20224;-75
2022/03/02 04:08:00;;;;;;;14.63;11.15;;;4.70;49.30;;;-142.21;76.57;112049.66;5072679;28;20197;-73
2022/03/02 04:10:27;;;;;;;13.68;11.10;;;4.80;49.00;;;-142.21;76.50;112049.66;5083260;28;20204;-75
2022/03/02 04:12:54;;;;;;;14.75;12.05;;;4.80;49.30;;;-142.21;76.28;112049.66;5081172;28;20246;-75
2022/03/02 04:15:22;;;;;;;13.65;11.35;;;4.70;49.30;;;-142.21;78.29;112049.66;5078295;28;20734;-76
2022/03/02 04:17:50;;;;;;;13.05;10.40;;;4.70;49.50;;;-142.21;76.42;112049.66;5075225;28;20205;-75
2022/03/02 04:20:17;;;;;;;13.98;10.63;;;4.80;49.20;;;-142.21;76.71;112049.66;5082197;28;20591;-75
2022/03/02 04:22:46;;;;;;;13.85;11.07;;;4.80;49.30;;;-142.21;78.36;112049.66;5073872;28;20205;-75
2022/03/02 04:25:13;;;;;;;13.45;10.98;;;4.70;49.70;;;-142.21;78.36;112049.66;5078389;28;20194;-77
2022/03/02 04:27:41;;;;;;;13.93;11.57;;;4.60;50.00;;;-142.21;76.00;112049.66;5069141;28;20213;-78
2022/03/02 04:30:11;;;;;;;17.10;10.55;;;4.60;49.70;;;-142.21;76.73;112049.66;5073354;28;20201;-76
2022/03/02 04:32:38;;;;;;;12.70;10.75;;;4.50;49.90;;;-142.21;76.42;112049.66;5071490;28;20198;-77
2022/03/02 04:35:09;;;;;;;12.82;10.50;;;4.60;49.70;;;-142.21;75.47;112049.66;5054954;28;20227;-78
2022/03/02 04:37:39;;;;;;;14.65;11.88;;;4.50;49.90;;;-142.21;77.30;112049.66;5072684;28;20201;-76
2022/03/02 04:40:11;;;;;;;13.10;10.73;;;4.50;50.40;;;-142.21;77.12;112049.66;5071465;28;20220;-75
2022/03/02 04:42:39;;;;;;;13.00;11.15;;;4.40;50.90;;;-142.21;76.43;112049.66;5071965;28;20232;-75
2022/03/02 04:45:10;;;;;;;12.80;11.05;;;4.40;50.80;;;-142.21;76.92;112049.66;5073950;28;20200;-74
2022/03/02 04:47:37;;;;;;;14.55;11.30;;;4.40;49.80;;;-142.21;77.35;112049.66;5077926;28;20276;-78
2022/03/02 04:50:07;;;;;;;12.35;9.93;;;4.40;50.10;;;-142.21;75.79;112049.66;5075932;28;20231;-77
2022/03/02 04:52:34;;;;;;;12.43;11.07;;;4.40;50.00;;;-142.21;76.61;112049.66;5072981;28;20247;-75
2022/03/02 04:55:09;;;;;;;13.38;11.10;;;4.30;50.00;;;-142.21;78.48;112049.66;5071746;28;20232;-74
2022/03/02 04:57:44;;;;;;;13.70;11.13;;;4.30;50.50;;;-142.21;78.90;112049.66;5072396;28;20552;-74
2022/03/02 05:00:16;;;;;;;13.35;11.15;;;4.30;50.30;;;-142.21;79.74;112049.66;5074295;28;20346;-77
2022/03/02 05:02:44;;;;;;;14.98;10.80;;;4.20;50.70;;;-142.21;78.58;112049.66;5079268;28;20285;-74
2022/03/02 05:05:15;;;;;;;13.73;10.40;;;4.30;50.00;;;-142.21;77.59;112049.66;5073021;28;20602;-76
2022/03/02 05:07:43;;;;;;;19.83;16.25;;;4.30;49.60;;;-142.21;77.16;112049.66;5076999;28;20244;-75
2022/03/02 05:10:14;;;;;;;16.15;12.98;;;4.40;49.60;;;-142.21;76.04;112049.66;5075679;28;20243;-75
2022/03/02 05:12:43;;;;;;;13.75;11.20;;;4.40;49.50;;;-142.21;76.52;112049.66;5072539;28;20281;-75
2022/03/02 05:15:12;;;;;;;14.63;12.00;;;4.40;49.50;;;-142.21;76.59;112049.66;5073465;28;20213;-75
2022/03/02 05:17:41;;;;;;;12.63;10.90;;;4.40;49.40;;;-142.21;77.39;112049.66;5077221;28;20193;-75
2022/03/02 05:20:12;;;;;;;13.00;11.13;;;4.30;49.70;;;-142.21;76.64;112049.66;5080377;28;20220;-74
2022/03/02 05:22:40;;;;;;;15.85;11.85;;;4.40;49.70;;;-142.21;78.17;112049.66;5071689;28;20202;-76
2022/03/02 05:25:10;;;;;;;14.93;11.85;;;4.30;50.10;;;-142.21;79.04;112049.66;5069398;28;20209;-74
2022/03/02 05:27:37;;;;;;;13.23;11.75;;;4.20;50.70;;;-142.21;82.20;112049.66;5072259;28;20617;-74
2022/03/02 05:30:08;;;;;;;13.68;11.23;;;4.10;50.70;;;-142.21;82.32;112049.66;5072315;28;20290;-73
2022/03/02 05:32:36;;;;;;;18.58;11.95;;;4.20;51.10;;;-142.21;81.45;112049.66;5035936;28;20232;-74
2022/03/02 05:35:04;;;;;;;14.85;12.25;;;4.20;51.10;;;-142.21;81.75;112049.66;5073119;28;20189;-74
2022/03/02 05:37:33;;;;;;;15.52;11.60;;;4.20;51.10;;;-142.21;81.81;112049.66;5071210;28;20293;-77
2022/03/02 05:40:01;;;;;;;14.90;12.15;;;4.20;50.90;;;-142.21;80.76;112049.66;5074933;28;20288;-76
2022/03/02 05:42:28;;;;;;;15.27;12.13;;;4.30;50.60;;;-142.21;80.24;112049.66;5075540;28;20217;-75
2022/03/02 05:44:56;;;;;;;13.05;10.75;;;4.20;50.50;;;-142.21;79.27;112049.66;5083333;28;20247;-77
2022/03/02 05:47:24;;;;;;;14.70;11.02;;;4.30;50.50;;;-142.21;78.68;112049.66;5095192;28;20274;-75
2022/03/02 05:49:52;;;;;;;14.27;11.25;;;4.30;50.10;;;-142.21;79.14;112049.66;5082592;28;20232;-76
2022/03/02 05:52:19;;;;;;;15.77;11.82;;;4.40;50.10;;;-142.21;77.84;112049.66;5077993;28;20213;-74
2022/03/02 05:54:46;;;;;;;16.83;12.20;;;4.30;50.00;;;-142.21;78.50;112049.66;5083833;28;20240;-76
2022/03/02 05:57:13;;;;;;;15.10;11.75;;;4.30;50.00;;;-142.21;79.61;112049.66;5074224;28;20248;-76
2022/03/02 05:59:41;;;;;;;15.02;11.10;;;4.30;50.40;;;-142.21;77.70;112049.66;5079029;28;20295;-76
2022/03/02 06:02:08;;;;;;;15.57;12.15;;;4.20;50.20;;;-142.21;79.72;112049.66;5081420;28;20317;-76
2022/03/02 06:04:37;;;;;;;16.35;12.43;;;4.30;50.10;;;-142.21;78.96;112049.66;5095443;28;20207;-75
2022/03/02 06:07:05;;;;;;;14.25;11.35;;;4.20;50.30;;;-142.21;79.88;112049.66;5076452;28;20281;-75
2022/03/02 06:09:33;;;;;;;13.60;11.15;;;4.20;50.70;;;-142.21;79.41;112049.66;5074809;28;20197;-77
2022/03/02 06:12:01;;;;;;;14.15;11.25;;;4.20;50.60;;;-142.21;80.23;112049.66;5075006;28;20209;-78
2022/03/02 06:14:29;;;;;;;14.30;11.27;;;4.20;50.70;;;-142.21;80.23;112049.66;5082817;28;20251;-78
2022/03/02 06:16:57;;;;;;;16.17;11.80;;;4.20;51.00;;;-142.21;80.50;112049.66;5078148;28;20224;-77
2022/03/02 06:19:25;;;;;;;14.32;11.35;;;4.20;51.40;;;-142.21;80.75;112049.66;5072265;28;20217;-76
2022/03/02 06:21:54;;;;;;;15.43;11.55;;;4.20;50.70;;;-142.21;80.17;112049.66;5071862;28;20243;-78
2022/03/02 06:24:22;;;;;;;13.95;11.27;;;4.30;50.90;;;-142.21;80.21;112049.66;5075954;28;20259;-77
2022/03/02 06:26:49;;;;;;;15.27;10.98;;;4.30;50.60;;;-142.21;79.43;112049.66;5075954;28;20746;-77
2022/03/02 06:29:47;;;;;;;14.88;11.45;;;4.30;50.60;;;-142.21;78.46;112049.66;5078151;28;20287;-76
2022/03/02 06:32:15;;;;;;;13.73;11.25;;;4.30;50.70;;;-142.21;79.70;112049.66;5085614;28;20228;-75
2022/03/02 06:34:43;;;;;;;14.45;11.63;;;4.30;50.50;;;-142.21;81.01;112049.66;5087040;28;20224;-76
2022/03/02 06:37:12;;;;;;;15.07;11.88;;;4.40;51.00;;;-142.21;81.85;112049.66;5081117;28;20265;-76
2022/03/02 06:39:40;;;;;;;12.82;10.85;;;4.30;51.30;;;-142.21;81.70;112049.66;5081724;28;20741;-74
2022/03/02 06:42:18;;;;;;;12.50;10.73;;;4.30;51.50;;;-142.21;82.03;112049.66;5077129;28;20299;-74
2022/03/02 06:44:56;;;;;;;13.30;10.55;;;4.30;52.00;;;-142.21;80.83;112049.66;5075383;28;20219;-75
2022/03/02 06:47:28;;;;;;;13.15;11.10;;;4.20;52.10;;;-142.21;81.95;112049.66;5077487;28;20247;-77
2022/03/02 06:50:06;;;;;;;13.65;11.07;;;4.20;52.20;;;-142.21;81.21;112049.66;5069401;28;20186;-74
2022/03/02 06:52:37;;;;;;;12.60;10.68;;;4.20;52.30;;;-142.21;81.51;112049.66;5074999;28;20223;-79
2022/03/02 06:55:08;;;;;;;13.73;11.70;;;4.30;51.70;;;-142.21;80.55;112049.66;5081440;28;20259;-75
2022/03/02 06:57:37;;;;;;;14.20;10.82;;;4.40;51.50;;;-142.21;80.36;112049.66;5088317;28;20223;-74
2022/03/02 07:00:09;;;;;;;15.20;12.02;;;4.70;51.70;;;-142.21;80.61;112049.66;5075613;28;20244;-76
2022/03/02 07:02:45;;;;;;;15.70;12.98;;;4.50;51.50;;;-142.21;80.97;112049.66;5076517;28;20209;-77
2022/03/02 07:05:12;;;;;;;15.82;12.15;;;4.60;51.40;;;-142.21;81.51;112049.66;5074992;28;20211;-76
2022/03/02 07:07:41;;;;;;;14.68;11.82;;;4.60;51.50;;;-142.21;80.07;112049.66;5082252;28;20225;-77
2022/03/02 07:10:11;;;;;;;14.15;12.10;;;4.60;51.60;;;-142.21;79.60;112049.66;5077437;28;20225;-75
2022/03/02 07:12:40;;;;;;;15.13;12.50;;;4.70;51.60;;;-142.21;79.36;112049.66;5062860;28;20621;-78
2022/03/02 07:15:08;;;;;;;16.77;13.38;;;4.80;51.40;;;-142.21;80.60;112049.66;5086947;28;20255;-77
2022/03/02 07:17:36;;;;;;;14.50;12.60;;;4.70;51.60;;;-142.21;81.61;112049.66;5069019;28;20700;-80
2022/03/02 07:20:07;;;;;;;18.95;13.60;;;4.80;51.90;;;-142.21;82.59;112049.66;5063475;28;20204;-76
2022/03/02 07:22:38;;;;;;;17.58;13.57;;;4.80;51.50;;;-142.21;82.55;112049.66;5075558;28;20536;-76
2022/03/02 07:25:15;;;;;;;19.40;14.10;;;5.00;51.80;;;-142.21;83.44;112049.66;5085811;28;20699;-75
2022/03/02 07:27:42;;;;;;;16.13;12.88;;;4.90;51.90;;;-142.21;81.56;112049.66;5074913;28;20255;-76
2022/03/02 07:30:11;;;;;;;18.13;14.55;;;4.90;51.80;;;-142.21;83.11;112049.66;5072022;28;20225;-78
2022/03/02 07:32:45;;;;;;;16.05;13.32;;;5.00;52.00;;;-142.21;82.91;112049.66;5074231;28;20292;-75
2022/03/02 07:35:15;;;;;;;21.05;14.32;;;5.10;52.00;;;-142.21;80.85;112049.66;5075562;28;20190;-75
2022/03/02 07:37:45;;;;;;;21.83;15.55;;;5.20;51.70;;;-142.21;79.46;112049.66;5073638;28;20221;-74
2022/03/02 07:40:15;;;;;;;22.88;15.50;;;5.30;51.30;;;-142.21;78.14;112049.66;5075292;28;20225;-74
2022/03/02 07:42:44;;;;;;;20.52;14.93;;;5.40;50.80;;;-142.21;79.12;112049.66;5073318;28;20281;-74
2022/03/02 07:45:11;;;;;;;18.20;14.75;;;5.50;51.50;;;-142.21;77.67;112049.66;5058486;28;20650;-75
2022/03/02 07:47:39;;;;;;;16.23;13.32;;;5.40;50.80;;;-142.21;76.06;112049.66;5068862;28;20256;-77
2022/03/02 07:50:07;;;;;;;18.00;13.15;;;5.50;50.30;;;-142.21;76.02;112049.66;5052707;28;20194;-75
2022/03/02 07:52:39;;;;;;;18.25;13.88;;;5.60;50.20;;;-142.21;76.19;112049.66;5069518;28;20208;-74
2022/03/02 07:55:09;;;;;;;17.80;14.18;;;5.70;50.20;;;-142.21;76.09;112049.66;5094190;28;20568;-79
2022/03/02 07:57:40;;;;;;;16.90;13.05;;;5.80;49.90;;;-142.21;76.87;112049.66;5081230;28;20197;-80
2022/03/02 08:00:11;;;;;;;17.40;13.05;;;5.90;50.30;;;-142.21;77.75;112049.66;5075131;28;20225;-77
2022/03/02 08:02:41;;;;;;;15.13;12.45;;;6.00;50.40;;;-142.21;79.62;112049.66;5075878;28;20208;-78
2022/03/02 08:05:10;;;;;;;15.30;12.20;;;6.10;50.60;;;-142.21;81.02;112049.66;5076344;28;20224;-77
2022/03/02 08:07:38;;;;;;;15.02;11.65;;;6.20;51.00;;;-142.21;80.83;112049.66;5074850;28;20689;-77
2022/03/02 08:10:07;;;;;;;13.80;11.52;;;6.30;51.10;;;-142.21;80.08;112049.66;5075057;28;20220;-78
2022/03/02 08:12:35;;;;;;;13.57;12.05;;;6.30;51.10;;;-142.21;80.00;112049.66;5075522;28;20288;-76
2022/03/02 08:15:06;;;;;;;13.77;11.48;;;6.30;51.00;;;-142.21;79.32;112049.66;5075331;28;20240;-76
2022/03/02 08:17:34;;;;;;;16.52;12.00;;;6.50;50.90;;;-142.21;77.00;112049.66;5075672;28;20205;-76
2022/03/02 08:20:01;;;;;;;13.47;11.73;;;6.60;50.30;;;-142.21;75.76;112049.66;5075007;28;20205;-77
2022/03/02 08:22:31;;;;;;;14.75;11.95;;;6.60;49.80;;;-142.21;75.54;112049.66;5074268;28;20452;-75
2022/03/02 08:25:08;;;;;;;13.05;11.65;;;6.80;49.60;;;-142.21;73.12;112049.66;5073590;28;20248;-77
2022/03/02 08:27:38;;;;;;;16.15;12.80;;;6.90;49.40;;;-142.21;73.45;112049.66;5074205;28;20357;-77
2022/03/02 08:30:10;;;;;;;14.40;12.73;;;6.90;49.50;;;-142.21;74.01;112049.66;5074956;28;20288;-78
2022/03/02 08:32:42;;;;;;;16.60;12.60;;;6.90;49.70;;;-142.21;72.46;112049.66;5074437;28;20178;-79
2022/03/02 08:35:11;;;;;;;15.35;12.90;;;6.90;49.20;;;-142.21;71.69;112049.66;5075743;28;20198;-80
2022/03/02 08:37:40;;;;;;;16.60;12.75;;;6.90;49.30;;;-142.21;71.81;112049.66;5073447;28;20243;-83
2022/03/02 08:40:10;;;;;;;15.35;12.20;;;7.00;49.40;;;-142.21;70.58;112049.66;5072963;28;20201;-79
2022/03/02 08:42:38;;;;;;;16.85;12.68;;;7.00;49.10;;;-142.21;70.38;112049.66;5073687;28;20197;-76
2022/03/02 08:45:13;;;;;;;15.23;12.45;;;7.10;48.70;;;-142.21;70.26;112049.66;5075028;28;20201;-84
2022/03/02 08:47:47;;;;;;;18.17;13.80;;;7.10;48.60;;;-142.21;69.75;112049.66;5077389;28;20221;-78
2022/03/02 08:50:15;;;;;;;16.80;14.03;;;7.10;48.60;;;-142.21;68.34;112049.66;5054843;28;20443;-78
2022/03/02 08:52:54;;;;;;;16.50;14.07;;;7.20;48.30;;;-142.21;68.91;112049.66;5089409;28;20446;-80
2022/03/02 08:55:32;;;;;;;15.25;13.05;;;7.30;48.20;;;-142.21;69.54;112049.66;5076399;28;20201;-80
2022/03/02 08:58:01;;;;;;;16.43;13.37;;;7.30;48.20;;;-142.21;69.62;112049.66;5063374;28;20729;-80
2022/03/02 09:00:30;;;;;;;18.00;13.63;;;7.40;48.50;;;-142.21;68.84;112049.66;5082255;28;20482;-80
2022/03/02 09:02:58;;;;;;;20.03;14.37;;;7.40;48.10;;;-142.21;69.77;112049.66;5070920;28;20443;-80
2022/03/02 09:05:29;;;;;;;16.57;14.03;;;7.40;48.30;;;-142.21;68.52;112049.66;5072346;28;20482;-79
2022/03/02 09:08:02;;;;;;;18.10;13.60;;;7.50;48.30;;;-142.21;67.87;112049.66;5082414;28;20958;-78
2022/03/02 09:10:30;;;;;;;19.88;14.30;;;7.50;48.30;;;-142.21;68.05;112049.66;5072399;28;20228;-79
2022/03/02 09:12:59;;;;;;;18.93;13.67;;;7.50;48.00;;;-142.21;69.77;112049.66;5070950;28;20208;-79
2022/03/02 09:15:27;;;;;;;19.37;13.30;;;7.50;48.20;;;-142.21;68.94;112049.66;5072546;28;20557;-80
2022/03/02 09:17:56;;;;;;;14.70;12.97;;;7.60;48.40;;;-142.21;67.94;112049.66;5076366;28;20443;-76
2022/03/02 09:20:24;;;;;;;15.33;12.77;;;7.70;48.20;;;-142.21;68.88;112049.66;5073736;28;20773;-79
2022/03/02 09:22:54;;;;;;;15.10;12.20;;;7.70;48.10;;;-142.21;68.08;112049.66;5072165;28;20542;-78
2022/03/02 09:25:30;;;;;;;15.33;12.77;;;7.70;48.10;;;-142.21;66.67;112049.66;5053989;28;20471;-78
2022/03/02 09:28:05;;;;;;;17.13;12.53;;;7.70;47.70;;;-142.21;65.81;112049.66;5085711;28;20545;-79
2022/03/02 09:30:32;;;;;;;15.57;13.00;;;7.80;47.70;;;-142.21;64.13;112049.66;5051400;28;20470;-80
2022/03/02 09:33:02;;;;;;;15.33;13.67;;;7.80;47.20;;;-142.21;63.17;112049.66;5067094;28;20451;-79
2022/03/02 09:35:30;;;;;;;15.53;13.00;;;7.80;47.20;;;-142.21;65.53;112049.66;5070395;28;20505;-79
2022/03/02 09:37:58;;;;;;;13.73;12.33;;;7.80;47.50;;;-142.21;63.63;112049.66;5075704;28;20527;-79
2022/03/02 09:40:31;;;;;;;18.27;12.83;;;7.80;47.10;;;-142.21;65.28;112049.66;5070842;28;20526;-80
2022/03/02 09:43:01;;;;;;;15.87;13.27;;;7.90;47.50;;;-142.21;67.08;112049.66;5071096;28;20489;-80
2022/03/02 09:45:33;;;;;;;16.13;13.60;;;8.00;47.90;;;-142.21;66.62;112049.66;5071228;28;20447;-79
2022/03/02 09:48:05;;;;;;;15.10;12.27;;;8.10;47.70;;;-142.21;63.15;112049.66;5070888;28;20525;-80
2022/03/02 09:50:39;;;;;;;15.70;12.37;;;8.20;47.10;;;-142.21;62.88;112049.66;5059556;28;20453;-80
2022/03/02 09:53:14;;;;;;;18.87;13.23;;;8.30;47.00;;;-142.21;64.45;112049.66;5060295;28;20479;-80
2022/03/02 09:55:44;;;;;;;15.80;13.67;;;8.50;47.00;;;-142.21;63.13;112049.66;5070550;28;20442;-80
2022/03/02 09:58:15;;;;;;;15.47;11.93;;;8.50;46.80;;;-142.21;63.54;112049.66;5071204;28;20451;-79
2022/03/02 10:00:48;;;;;;;16.63;13.13;;;8.60;47.20;;;-142.21;62.64;112049.66;5070714;28;20435;-79